sensor_id;sensor_type;location;lat;lon;timestamp;temperature;humidity
11221;DHT22;8517;53.546;10.104;2023-01-28T00:04:32;5.10;99.90
11221;DHT22;8517;53.546;10.104;2023-01-28T00:07:00;5.10;99.90
11221;DHT22;8517;53.546;10.104;2023-01-28T00:09:27;5.10;99.90
11221;DHT22;8517;53.546;10.104;2023-01-28T00:11:54;5.10;99.90
11221;DHT22;8517;53.546;10.104;2023-01-28T00:14:21;5.10;99.90
11221;DHT22;8517;53.546;10.104;2023-01-28T00:16:47;5.10;99.90
11221;DHT22;8517;53.546;10.104;2023-01-28T00:19:14;5.10;99.90
11221;DHT22;8517;53.546;10.104;2023-01-28T00:21:41;5.10;99.90
11221;DHT22;8517;53.546;10.104;2023-01-28T00:24:09;5.10;99.90
11221;DHT22;8517;53.546;10.104;2023-01-28T00:26:36;5.20;99.90
11221;DHT22;8517;53.546;10.104;2023-01-28T00:29:02;5.10;99.90
11221;DHT22;8517;53.546;10.104;2023-01-28T00:31:29;5.10;99.90
11221;DHT22;8517;53.546;10.104;2023-01-28T00:33:56;5.10;99.90
11221;DHT22;8517;53.546;10.104;2023-01-28T00:36:24;5.10;99.90
11221;DHT22;8517;53.546;10.104;2023-01-28T00:38:53;5.10;99.90
11221;DHT22;8517;53.546;10.104;2023-01-28T00:41:23;5.10;99.90
11221;DHT22;8517;53.546;10.104;2023-01-28T00:43:51;5.10;99.90
11221;DHT22;8517;53.546;10.104;2023-01-28T00:46:18;5.10;99.90
11221;DHT22;8517;53.546;10.104;2023-01-28T00:48:46;5.10;99.90
11221;DHT22;8517;53.546;10.104;2023-01-28T00:51:15;5.10;99.90
11221;DHT22;8517;53.546;10.104;2023-01-28T00:53:43;5.10;99.90
11221;DHT22;8517;53.546;10.104;2023-01-28T00:56:13;5.10;99.90
11221;DHT22;8517;53.546;10.104;2023-01-28T00:58:41;5.10;99.90
11221;DHT22;8517;53.546;10.104;2023-01-28T01:01:09;5.10;99.90
11221;DHT22;8517;53.546;10.104;2023-01-28T01:03:36;5.10;99.90
11221;DHT22;8517;53.546;10.104;2023-01-28T01:06:03;5.10;99.90
11221;DHT22;8517;53.546;10.104;2023-01-28T01:08:30;5.10;99.90
11221;DHT22;8517;53.546;10.104;2023-01-28T01:11:00;5.00;99.90
11221;DHT22;8517;53.546;10.104;2023-01-28T01:13:27;5.00;99.90
11221;DHT22;8517;53.546;10.104;2023-01-28T01:16:02;5.00;99.90
11221;DHT22;8517;53.546;10.104;2023-01-28T01:18:30;5.00;99.90
11221;DHT22;8517;53.546;10.104;2023-01-28T01:20:58;5.00;99.90
11221;DHT22;8517;53.546;10.104;2023-01-28T01:23:25;5.00;99.90
11221;DHT22;8517;53.546;10.104;2023-01-28T01:25:52;5.00;99.90
11221;DHT22;8517;53.546;10.104;2023-01-28T01:28:19;5.00;99.90
11221;DHT22;8517;53.546;10.104;2023-01-28T01:30:46;5.00;99.90
11221;DHT22;8517;53.546;10.104;2023-01-28T01:33:15;5.00;99.90
11221;DHT22;8517;53.546;10.104;2023-01-28T01:35:42;5.00;99.90
11221;DHT22;8517;53.546;10.104;2023-01-28T01:38:09;5.00;99.90
11221;DHT22;8517;53.546;10.104;2023-01-28T01:40:35;5.00;99.90
11221;DHT22;8517;53.546;10.104;2023-01-28T01:43:14;5.10;99.90
11221;DHT22;8517;53.546;10.104;2023-01-28T01:45:42;5.10;99.90
11221;DHT22;8517;53.546;10.104;2023-01-28T01:48:15;5.00;99.90
11221;DHT22;8517;53.546;10.104;2023-01-28T01:50:48;5.00;99.90
11221;DHT22;8517;53.546;10.104;2023-01-28T01:53:18;5.00;99.90
11221;DHT22;8517;53.546;10.104;2023-01-28T01:55:49;5.00;99.90
11221;DHT22;8517;53.546;10.104;2023-01-28T01:58:20;5.00;99.90
11221;DHT22;8517;53.546;10.104;2023-01-28T02:00:48;5.10;99.90
11221;DHT22;8517;53.546;10.104;2023-01-28T02:03:20;5.10;99.90
11221;DHT22;8517;53.546;10.104;2023-01-28T02:05:51;5.00;99.90
11221;DHT22;8517;53.546;10.104;2023-01-28T02:08:18;5.00;99.90
11221;DHT22;8517;53.546;10.104;2023-01-28T02:10:51;5.00;99.90
11221;DHT22;8517;53.546;10.104;2023-01-28T02:13:20;5.00;99.90
11221;DHT22;8517;53.546;10.104;2023-01-28T02:15:48;5.10;99.90
11221;DHT22;8517;53.546;10.104;2023-01-28T02:18:16;5.10;99.90
11221;DHT22;8517;53.546;10.104;2023-01-28T02:20:56;5.00;99.90
11221;DHT22;8517;53.546;10.104;2023-01-28T02:23:36;5.00;99.90
11221;DHT22;8517;53.546;10.104;2023-01-28T02:26:24;5.00;99.90
11221;DHT22;8517;53.546;10.104;2023-01-28T02:28:56;5.00;99.90
11221;DHT22;8517;53.546;10.104;2023-01-28T02:31:28;5.00;99.90
11221;DHT22;8517;53.546;10.104;2023-01-28T02:34:01;5.00;99.90
11221;DHT22;8517;53.546;10.104;2023-01-28T02:36:36;5.00;99.90
11221;DHT22;8517;53.546;10.104;2023-01-28T02:39:09;4.90;99.90
11221;DHT22;8517;53.546;10.104;2023-01-28T02:42:00;4.90;99.90
11221;DHT22;8517;53.546;10.104;2023-01-28T02:44:31;4.80;99.90
11221;DHT22;8517;53.546;10.104;2023-01-28T02:46:58;4.80;99.90
11221;DHT22;8517;53.546;10.104;2023-01-28T02:49:53;4.70;99.90
11221;DHT22;8517;53.546;10.104;2023-01-28T02:52:29;4.70;99.90
11221;DHT22;8517;53.546;10.104;2023-01-28T02:55:23;4.60;99.90
11221;DHT22;8517;53.546;10.104;2023-01-28T02:58:00;4.60;99.90
11221;DHT22;8517;53.546;10.104;2023-01-28T03:00:38;4.60;99.90
11221;DHT22;8517;53.546;10.104;2023-01-28T03:03:14;4.60;99.90
11221;DHT22;8517;53.546;10.104;2023-01-28T03:05:44;4.60;99.90
11221;DHT22;8517;53.546;10.104;2023-01-28T03:08:30;4.60;99.90
11221;DHT22;8517;53.546;10.104;2023-01-28T03:11:15;4.60;99.90
11221;DHT22;8517;53.546;10.104;2023-01-28T03:14:00;4.70;99.90
11221;DHT22;8517;53.546;10.104;2023-01-28T03:16:46;4.70;99.90
11221;DHT22;8517;53.546;10.104;2023-01-28T03:19:32;4.70;99.90
11221;DHT22;8517;53.546;10.104;2023-01-28T03:22:16;4.80;99.90
11221;DHT22;8517;53.546;10.104;2023-01-28T03:25:01;4.80;99.90
11221;DHT22;8517;53.546;10.104;2023-01-28T03:27:49;4.80;99.90
11221;DHT22;8517;53.546;10.104;2023-01-28T03:30:38;4.80;99.90
11221;DHT22;8517;53.546;10.104;2023-01-28T03:33:25;4.90;99.90
11221;DHT22;8517;53.546;10.104;2023-01-28T03:36:11;4.90;99.90
11221;DHT22;8517;53.546;10.104;2023-01-28T03:38:55;4.80;99.90
11221;DHT22;8517;53.546;10.104;2023-01-28T03:41:24;4.80;99.90
11221;DHT22;8517;53.546;10.104;2023-01-28T03:43:51;4.80;99.90
11221;DHT22;8517;53.546;10.104;2023-01-28T03:46:19;4.80;99.90
11221;DHT22;8517;53.546;10.104;2023-01-28T03:48:47;4.80;99.90
11221;DHT22;8517;53.546;10.104;2023-01-28T03:51:14;4.80;99.90
11221;DHT22;8517;53.546;10.104;2023-01-28T03:53:42;4.80;99.90
11221;DHT22;8517;53.546;10.104;2023-01-28T03:56:09;4.80;99.90
11221;DHT22;8517;53.546;10.104;2023-01-28T03:58:43;4.80;99.90
11221;DHT22;8517;53.546;10.104;2023-01-28T04:01:17;4.80;99.90
11221;DHT22;8517;53.546;10.104;2023-01-28T04:03:44;4.80;99.90
11221;DHT22;8517;53.546;10.104;2023-01-28T04:06:13;4.80;99.90
11221;DHT22;8517;53.546;10.104;2023-01-28T04:08:40;4.80;99.90
11221;DHT22;8517;53.546;10.104;2023-01-28T04:11:10;4.90;99.90
11221;DHT22;8517;53.546;10.104;2023-01-28T04:13:41;4.80;99.90
11221;DHT22;8517;53.546;10.104;2023-01-28T04:16:08;4.80;99.90
11221;DHT22;8517;53.546;10.104;2023-01-28T04:18:35;4.80;99.90
11221;DHT22;8517;53.546;10.104;2023-01-28T04:21:02;4.70;99.90
11221;DHT22;8517;53.546;10.104;2023-01-28T04:23:30;4.70;99.90
11221;DHT22;8517;53.546;10.104;2023-01-28T04:25:57;4.70;99.90
11221;DHT22;8517;53.546;10.104;2023-01-28T04:28:24;4.60;99.90
11221;DHT22;8517;53.546;10.104;2023-01-28T04:30:51;4.60;99.90
11221;DHT22;8517;53.546;10.104;2023-01-28T04:33:18;4.60;99.90
11221;DHT22;8517;53.546;10.104;2023-01-28T04:35:45;4.50;99.90
11221;DHT22;8517;53.546;10.104;2023-01-28T04:38:11;4.50;99.90
11221;DHT22;8517;53.546;10.104;2023-01-28T04:40:39;4.50;99.90
11221;DHT22;8517;53.546;10.104;2023-01-28T04:43:07;4.40;99.90
11221;DHT22;8517;53.546;10.104;2023-01-28T04:45:34;4.40;99.90
11221;DHT22;8517;53.546;10.104;2023-01-28T04:48:00;4.40;99.90
11221;DHT22;8517;53.546;10.104;2023-01-28T04:50:27;4.40;99.90
11221;DHT22;8517;53.546;10.104;2023-01-28T04:52:54;4.30;99.90
11221;DHT22;8517;53.546;10.104;2023-01-28T04:55:21;4.30;99.90
11221;DHT22;8517;53.546;10.104;2023-01-28T04:57:49;4.30;99.90
11221;DHT22;8517;53.546;10.104;2023-01-28T05:00:17;4.30;99.90
11221;DHT22;8517;53.546;10.104;2023-01-28T05:02:43;4.40;99.90
11221;DHT22;8517;53.546;10.104;2023-01-28T05:05:10;4.30;99.90
11221;DHT22;8517;53.546;10.104;2023-01-28T05:07:37;4.30;99.90
11221;DHT22;8517;53.546;10.104;2023-01-28T05:10:05;4.30;99.90
11221;DHT22;8517;53.546;10.104;2023-01-28T05:12:31;4.30;99.90
11221;DHT22;8517;53.546;10.104;2023-01-28T05:15:00;4.30;99.90
11221;DHT22;8517;53.546;10.104;2023-01-28T05:17:27;4.30;99.90
11221;DHT22;8517;53.546;10.104;2023-01-28T05:19:54;4.30;99.90
11221;DHT22;8517;53.546;10.104;2023-01-28T05:22:20;4.30;99.90
11221;DHT22;8517;53.546;10.104;2023-01-28T05:24:47;4.20;99.90
11221;DHT22;8517;53.546;10.104;2023-01-28T05:27:14;4.20;99.90
11221;DHT22;8517;53.546;10.104;2023-01-28T05:29:41;4.20;99.90
11221;DHT22;8517;53.546;10.104;2023-01-28T05:32:09;4.20;99.90
11221;DHT22;8517;53.546;10.104;2023-01-28T05:34:36;4.20;99.90
11221;DHT22;8517;53.546;10.104;2023-01-28T05:37:02;4.10;99.90
11221;DHT22;8517;53.546;10.104;2023-01-28T05:39:29;4.10;99.90
11221;DHT22;8517;53.546;10.104;2023-01-28T05:41:56;4.10;99.90
11221;DHT22;8517;53.546;10.104;2023-01-28T05:44:23;4.00;99.90
11221;DHT22;8517;53.546;10.104;2023-01-28T05:46:50;4.00;99.90
11221;DHT22;8517;53.546;10.104;2023-01-28T05:49:18;3.90;99.90
11221;DHT22;8517;53.546;10.104;2023-01-28T05:51:45;3.80;99.90
11221;DHT22;8517;53.546;10.104;2023-01-28T05:54:13;3.80;99.90
11221;DHT22;8517;53.546;10.104;2023-01-28T05:56:39;3.70;99.90
11221;DHT22;8517;53.546;10.104;2023-01-28T05:59:06;3.70;99.90
11221;DHT22;8517;53.546;10.104;2023-01-28T06:01:34;3.60;99.90
11221;DHT22;8517;53.546;10.104;2023-01-28T06:04:02;3.60;99.90
11221;DHT22;8517;53.546;10.104;2023-01-28T06:06:31;3.60;99.90
11221;DHT22;8517;53.546;10.104;2023-01-28T06:08:57;3.60;99.90
11221;DHT22;8517;53.546;10.104;2023-01-28T06:11:24;3.50;99.90
11221;DHT22;8517;53.546;10.104;2023-01-28T06:13:51;3.50;99.90
11221;DHT22;8517;53.546;10.104;2023-01-28T06:16:18;3.50;99.90
11221;DHT22;8517;53.546;10.104;2023-01-28T06:18:45;3.50;99.90
11221;DHT22;8517;53.546;10.104;2023-01-28T06:21:12;3.40;99.90
11221;DHT22;8517;53.546;10.104;2023-01-28T06:23:40;3.40;99.90
11221;DHT22;8517;53.546;10.104;2023-01-28T06:26:07;3.40;99.90
11221;DHT22;8517;53.546;10.104;2023-01-28T06:28:33;3.40;99.90
11221;DHT22;8517;53.546;10.104;2023-01-28T06:31:00;3.40;99.90
11221;DHT22;8517;53.546;10.104;2023-01-28T06:33:27;3.40;99.90
11221;DHT22;8517;53.546;10.104;2023-01-28T06:35:54;3.30;99.90
11221;DHT22;8517;53.546;10.104;2023-01-28T06:38:21;3.30;99.90
11221;DHT22;8517;53.546;10.104;2023-01-28T06:40:51;3.30;99.90
11221;DHT22;8517;53.546;10.104;2023-01-28T06:43:20;3.30;99.90
11221;DHT22;8517;53.546;10.104;2023-01-28T06:45:52;3.20;99.90
11221;DHT22;8517;53.546;10.104;2023-01-28T06:48:18;3.20;99.90
11221;DHT22;8517;53.546;10.104;2023-01-28T06:50:45;3.20;99.90
11221;DHT22;8517;53.546;10.104;2023-01-28T06:53:12;3.10;99.90
11221;DHT22;8517;53.546;10.104;2023-01-28T06:55:39;3.10;99.90
11221;DHT22;8517;53.546;10.104;2023-01-28T06:58:07;3.00;99.90
11221;DHT22;8517;53.546;10.104;2023-01-28T07:00:34;3.00;99.90
11221;DHT22;8517;53.546;10.104;2023-01-28T07:03:01;3.00;99.90
11221;DHT22;8517;53.546;10.104;2023-01-28T07:05:28;3.00;99.90
11221;DHT22;8517;53.546;10.104;2023-01-28T07:07:55;3.00;99.90
11221;DHT22;8517;53.546;10.104;2023-01-28T07:10:22;2.90;99.90
11221;DHT22;8517;53.546;10.104;2023-01-28T07:12:49;2.90;99.90
11221;DHT22;8517;53.546;10.104;2023-01-28T07:15:17;2.90;99.90
11221;DHT22;8517;53.546;10.104;2023-01-28T07:17:44;2.90;99.90
11221;DHT22;8517;53.546;10.104;2023-01-28T07:20:13;2.90;99.90
11221;DHT22;8517;53.546;10.104;2023-01-28T07:22:41;2.90;99.90
11221;DHT22;8517;53.546;10.104;2023-01-28T07:25:10;2.80;99.90
11221;DHT22;8517;53.546;10.104;2023-01-28T07:27:37;2.80;99.90
11221;DHT22;8517;53.546;10.104;2023-01-28T07:30:05;2.80;99.90
11221;DHT22;8517;53.546;10.104;2023-01-28T07:32:33;2.80;99.90
11221;DHT22;8517;53.546;10.104;2023-01-28T07:35:00;2.80;99.90
11221;DHT22;8517;53.546;10.104;2023-01-28T07:37:26;2.80;99.90
11221;DHT22;8517;53.546;10.104;2023-01-28T07:39:53;2.80;99.90
11221;DHT22;8517;53.546;10.104;2023-01-28T07:42:20;2.80;99.90
11221;DHT22;8517;53.546;10.104;2023-01-28T07:44:47;2.80;99.90
11221;DHT22;8517;53.546;10.104;2023-01-28T07:47:14;2.80;99.90
11221;DHT22;8517;53.546;10.104;2023-01-28T07:49:42;2.80;99.90
11221;DHT22;8517;53.546;10.104;2023-01-28T07:52:09;2.80;99.90
11221;DHT22;8517;53.546;10.104;2023-01-28T07:54:36;2.80;99.90
11221;DHT22;8517;53.546;10.104;2023-01-28T07:57:06;2.70;99.90
11221;DHT22;8517;53.546;10.104;2023-01-28T07:59:35;2.70;99.90
11221;DHT22;8517;53.546;10.104;2023-01-28T08:02:02;2.80;99.90
11221;DHT22;8517;53.546;10.104;2023-01-28T08:04:29;2.80;99.90
11221;DHT22;8517;53.546;10.104;2023-01-28T08:06:57;2.80;99.90
11221;DHT22;8517;53.546;10.104;2023-01-28T08:09:24;2.80;99.90
11221;DHT22;8517;53.546;10.104;2023-01-28T08:11:51;2.80;99.90
11221;DHT22;8517;53.546;10.104;2023-01-28T08:14:18;2.80;99.90
11221;DHT22;8517;53.546;10.104;2023-01-28T08:16:45;2.80;99.90
11221;DHT22;8517;53.546;10.104;2023-01-28T08:19:12;2.80;99.90
11221;DHT22;8517;53.546;10.104;2023-01-28T08:21:42;2.80;99.90
11221;DHT22;8517;53.546;10.104;2023-01-28T08:27:54;2.90;99.90
11221;DHT22;8517;53.546;10.104;2023-01-28T08:30:21;2.90;99.90
11221;DHT22;8517;53.546;10.104;2023-01-28T08:32:48;2.90;99.90
11221;DHT22;8517;53.546;10.104;2023-01-28T08:35:15;2.90;99.90
11221;DHT22;8517;53.546;10.104;2023-01-28T08:37:42;2.90;99.90
11221;DHT22;8517;53.546;10.104;2023-01-28T08:40:12;3.00;99.90
11221;DHT22;8517;53.546;10.104;2023-01-28T08:42:38;3.00;99.90
11221;DHT22;8517;53.546;10.104;2023-01-28T08:45:08;3.00;99.90
11221;DHT22;8517;53.546;10.104;2023-01-28T08:47:35;3.10;99.90
11221;DHT22;8517;53.546;10.104;2023-01-28T08:50:02;3.20;99.90
11221;DHT22;8517;53.546;10.104;2023-01-28T08:52:29;3.30;99.90
11221;DHT22;8517;53.546;10.104;2023-01-28T08:54:55;3.40;99.90
11221;DHT22;8517;53.546;10.104;2023-01-28T08:57:22;3.40;99.90
11221;DHT22;8517;53.546;10.104;2023-01-28T08:59:49;3.50;99.90
11221;DHT22;8517;53.546;10.104;2023-01-28T09:02:17;3.60;99.90
11221;DHT22;8517;53.546;10.104;2023-01-28T09:04:44;3.70;99.90
11221;DHT22;8517;53.546;10.104;2023-01-28T09:07:11;3.70;99.90
11221;DHT22;8517;53.546;10.104;2023-01-28T09:09:38;3.80;99.90
11221;DHT22;8517;53.546;10.104;2023-01-28T09:12:08;3.80;99.90
11221;DHT22;8517;53.546;10.104;2023-01-28T09:14:35;3.80;99.90
11221;DHT22;8517;53.546;10.104;2023-01-28T09:17:03;3.80;99.90
11221;DHT22;8517;53.546;10.104;2023-01-28T09:19:31;3.80;99.90
11221;DHT22;8517;53.546;10.104;2023-01-28T09:21:58;3.80;99.90
11221;DHT22;8517;53.546;10.104;2023-01-28T09:24:25;3.80;99.90
11221;DHT22;8517;53.546;10.104;2023-01-28T09:26:52;3.80;99.90
11221;DHT22;8517;53.546;10.104;2023-01-28T09:29:18;3.90;99.90
11221;DHT22;8517;53.546;10.104;2023-01-28T09:31:45;4.00;99.90
11221;DHT22;8517;53.546;10.104;2023-01-28T09:34:12;4.20;99.90
11221;DHT22;8517;53.546;10.104;2023-01-28T09:36:40;4.30;99.90
11221;DHT22;8517;53.546;10.104;2023-01-28T09:39:07;4.60;99.90
11221;DHT22;8517;53.546;10.104;2023-01-28T09:41:43;4.80;99.90
11221;DHT22;8517;53.546;10.104;2023-01-28T09:44:27;5.10;99.90
11221;DHT22;8517;53.546;10.104;2023-01-28T09:47:00;5.50;99.90
11221;DHT22;8517;53.546;10.104;2023-01-28T09:49:33;5.70;99.90
11221;DHT22;8517;53.546;10.104;2023-01-28T09:52:03;5.90;99.90
11221;DHT22;8517;53.546;10.104;2023-01-28T09:54:37;6.20;99.90
11221;DHT22;8517;53.546;10.104;2023-01-28T09:57:11;6.50;99.90
11221;DHT22;8517;53.546;10.104;2023-01-28T09:59:39;7.00;99.90
11221;DHT22;8517;53.546;10.104;2023-01-28T10:02:22;7.40;99.90
11221;DHT22;8517;53.546;10.104;2023-01-28T10:04:57;7.70;99.90
11221;DHT22;8517;53.546;10.104;2023-01-28T10:07:35;7.90;99.90
11221;DHT22;8517;53.546;10.104;2023-01-28T10:10:08;8.10;99.90
11221;DHT22;8517;53.546;10.104;2023-01-28T10:13:13;8.30;99.90
11221;DHT22;8517;53.546;10.104;2023-01-28T10:18:41;8.60;99.90
11221;DHT22;8517;53.546;10.104;2023-01-28T10:21:15;8.50;99.90
11221;DHT22;8517;53.546;10.104;2023-01-28T10:23:53;8.50;99.90
11221;DHT22;8517;53.546;10.104;2023-01-28T10:26:28;8.60;99.90
11221;DHT22;8517;53.546;10.104;2023-01-28T10:28:57;8.60;99.90
11221;DHT22;8517;53.546;10.104;2023-01-28T10:31:30;8.80;99.90
11221;DHT22;8517;53.546;10.104;2023-01-28T10:33:58;8.80;99.90
11221;DHT22;8517;53.546;10.104;2023-01-28T10:36:25;8.80;99.90
11221;DHT22;8517;53.546;10.104;2023-01-28T10:38:54;8.80;99.90
11221;DHT22;8517;53.546;10.104;2023-01-28T10:41:21;8.70;99.90
11221;DHT22;8517;53.546;10.104;2023-01-28T10:43:50;8.80;99.90
11221;DHT22;8517;53.546;10.104;2023-01-28T10:46:20;8.80;99.90
11221;DHT22;8517;53.546;10.104;2023-01-28T10:48:54;8.80;99.90
11221;DHT22;8517;53.546;10.104;2023-01-28T10:51:34;8.80;99.90
11221;DHT22;8517;53.546;10.104;2023-01-28T10:54:03;8.70;99.90
11221;DHT22;8517;53.546;10.104;2023-01-28T10:56:43;8.50;99.90
11221;DHT22;8517;53.546;10.104;2023-01-28T10:59:19;8.50;99.90
11221;DHT22;8517;53.546;10.104;2023-01-28T11:01:49;8.40;99.90
11221;DHT22;8517;53.546;10.104;2023-01-28T11:04:20;8.40;99.90
11221;DHT22;8517;53.546;10.104;2023-01-28T11:06:59;8.40;99.90
11221;DHT22;8517;53.546;10.104;2023-01-28T11:09:29;8.40;99.90
11221;DHT22;8517;53.546;10.104;2023-01-28T11:11:56;8.40;99.90
11221;DHT22;8517;53.546;10.104;2023-01-28T11:14:25;8.40;99.90
11221;DHT22;8517;53.546;10.104;2023-01-28T11:16:55;8.40;99.90
11221;DHT22;8517;53.546;10.104;2023-01-28T11:19:28;8.60;99.90
11221;DHT22;8517;53.546;10.104;2023-01-28T11:21:57;8.70;99.90
11221;DHT22;8517;53.546;10.104;2023-01-28T11:24:28;8.90;99.90
11221;DHT22;8517;53.546;10.104;2023-01-28T11:26:57;9.00;99.90
11221;DHT22;8517;53.546;10.104;2023-01-28T11:29:27;9.10;99.90
11221;DHT22;8517;53.546;10.104;2023-01-28T11:31:57;9.20;99.90
11221;DHT22;8517;53.546;10.104;2023-01-28T11:34:26;9.20;99.90
11221;DHT22;8517;53.546;10.104;2023-01-28T11:36:59;9.30;99.90
11221;DHT22;8517;53.546;10.104;2023-01-28T11:39:29;9.30;99.90
11221;DHT22;8517;53.546;10.104;2023-01-28T11:42:16;9.40;99.90
11221;DHT22;8517;53.546;10.104;2023-01-28T11:44:44;9.40;99.90
11221;DHT22;8517;53.546;10.104;2023-01-28T11:47:25;9.50;99.90
11221;DHT22;8517;53.546;10.104;2023-01-28T11:53:04;9.70;99.90
11221;DHT22;8517;53.546;10.104;2023-01-28T11:55:58;9.60;99.90
11221;DHT22;8517;53.546;10.104;2023-01-28T11:58:35;9.50;99.90
11221;DHT22;8517;53.546;10.104;2023-01-28T12:01:11;9.40;99.90
11221;DHT22;8517;53.546;10.104;2023-01-28T12:03:46;9.20;99.90
11221;DHT22;8517;53.546;10.104;2023-01-28T12:09:20;8.90;99.90
11221;DHT22;8517;53.546;10.104;2023-01-28T12:12:02;8.70;99.90
11221;DHT22;8517;53.546;10.104;2023-01-28T12:14:56;8.50;99.90
11221;DHT22;8517;53.546;10.104;2023-01-28T12:17:33;8.40;99.90
11221;DHT22;8517;53.546;10.104;2023-01-28T12:20:11;8.40;99.90
11221;DHT22;8517;53.546;10.104;2023-01-28T12:22:57;8.40;99.90
11221;DHT22;8517;53.546;10.104;2023-01-28T12:25:34;8.30;99.90
11221;DHT22;8517;53.546;10.104;2023-01-28T12:28:09;8.20;99.90
11221;DHT22;8517;53.546;10.104;2023-01-28T12:31:00;8.10;99.90
11221;DHT22;8517;53.546;10.104;2023-01-28T12:34:07;8.00;99.90
11221;DHT22;8517;53.546;10.104;2023-01-28T12:36:47;7.90;99.90
11221;DHT22;8517;53.546;10.104;2023-01-28T12:39:25;7.90;99.90
11221;DHT22;8517;53.546;10.104;2023-01-28T12:42:04;7.80;99.90
11221;DHT22;8517;53.546;10.104;2023-01-28T12:44:39;7.80;99.90
11221;DHT22;8517;53.546;10.104;2023-01-28T12:47:17;7.80;99.90
11221;DHT22;8517;53.546;10.104;2023-01-28T12:49:48;7.80;99.90
11221;DHT22;8517;53.546;10.104;2023-01-28T12:52:18;7.80;99.90
11221;DHT22;8517;53.546;10.104;2023-01-28T12:54:55;7.80;99.90
11221;DHT22;8517;53.546;10.104;2023-01-28T12:57:33;7.80;99.90
11221;DHT22;8517;53.546;10.104;2023-01-28T13:00:36;7.80;99.90
11221;DHT22;8517;53.546;10.104;2023-01-28T13:03:33;7.80;99.90
11221;DHT22;8517;53.546;10.104;2023-01-28T13:06:03;7.80;99.90
11221;DHT22;8517;53.546;10.104;2023-01-28T13:08:35;7.80;99.90
11221;DHT22;8517;53.546;10.104;2023-01-28T13:11:03;7.70;99.90
11221;DHT22;8517;53.546;10.104;2023-01-28T13:13:32;7.60;99.90
11221;DHT22;8517;53.546;10.104;2023-01-28T13:16:02;7.50;99.90
11221;DHT22;8517;53.546;10.104;2023-01-28T13:18:33;7.40;99.90
11221;DHT22;8517;53.546;10.104;2023-01-28T13:21:01;7.30;99.90
11221;DHT22;8517;53.546;10.104;2023-01-28T13:23:41;7.30;99.90
11221;DHT22;8517;53.546;10.104;2023-01-28T13:26:25;7.20;99.90
11221;DHT22;8517;53.546;10.104;2023-01-28T13:29:05;7.10;99.90
11221;DHT22;8517;53.546;10.104;2023-01-28T13:31:38;7.20;99.90
11221;DHT22;8517;53.546;10.104;2023-01-28T13:34:06;7.30;99.90
11221;DHT22;8517;53.546;10.104;2023-01-28T13:36:42;7.50;99.90
11221;DHT22;8517;53.546;10.104;2023-01-28T13:39:18;7.60;99.90
11221;DHT22;8517;53.546;10.104;2023-01-28T13:41:49;7.70;99.90
11221;DHT22;8517;53.546;10.104;2023-01-28T13:44:18;7.90;99.90
11221;DHT22;8517;53.546;10.104;2023-01-28T13:46:47;8.00;99.90
11221;DHT22;8517;53.546;10.104;2023-01-28T13:49:17;8.10;99.90
11221;DHT22;8517;53.546;10.104;2023-01-28T13:51:57;8.10;99.90
11221;DHT22;8517;53.546;10.104;2023-01-28T13:54:26;8.10;99.90
11221;DHT22;8517;53.546;10.104;2023-01-28T13:57:22;8.10;99.90
11221;DHT22;8517;53.546;10.104;2023-01-28T14:00:04;8.00;99.90
11221;DHT22;8517;53.546;10.104;2023-01-28T14:03:20;7.90;99.90
11221;DHT22;8517;53.546;10.104;2023-01-28T14:06:19;7.90;99.90
11221;DHT22;8517;53.546;10.104;2023-01-28T14:12:23;7.70;99.90
11221;DHT22;8517;53.546;10.104;2023-01-28T14:17:51;7.50;99.90
11221;DHT22;8517;53.546;10.104;2023-01-28T14:20:21;7.40;99.90
11221;DHT22;8517;53.546;10.104;2023-01-28T14:23:30;7.30;99.90
11221;DHT22;8517;53.546;10.104;2023-01-28T14:26:22;7.30;99.90
11221;DHT22;8517;53.546;10.104;2023-01-28T14:28:59;7.20;99.90
11221;DHT22;8517;53.546;10.104;2023-01-28T14:31:44;7.20;99.90
11221;DHT22;8517;53.546;10.104;2023-01-28T14:34:34;7.20;99.90
11221;DHT22;8517;53.546;10.104;2023-01-28T14:37:07;7.10;99.90
11221;DHT22;8517;53.546;10.104;2023-01-28T14:39:42;7.00;99.90
11221;DHT22;8517;53.546;10.104;2023-01-28T14:42:15;6.90;99.90
11221;DHT22;8517;53.546;10.104;2023-01-28T14:44:45;6.90;99.90
11221;DHT22;8517;53.546;10.104;2023-01-28T14:47:34;6.90;99.90
11221;DHT22;8517;53.546;10.104;2023-01-28T14:50:35;6.80;99.90
11221;DHT22;8517;53.546;10.104;2023-01-28T14:53:30;6.80;99.90
11221;DHT22;8517;53.546;10.104;2023-01-28T14:56:09;6.70;99.90
11221;DHT22;8517;53.546;10.104;2023-01-28T14:58:53;6.70;99.90
11221;DHT22;8517;53.546;10.104;2023-01-28T15:01:24;6.60;99.90
11221;DHT22;8517;53.546;10.104;2023-01-28T15:03:52;6.60;99.90
11221;DHT22;8517;53.546;10.104;2023-01-28T15:06:22;6.50;99.90
11221;DHT22;8517;53.546;10.104;2023-01-28T15:08:50;6.50;99.90
11221;DHT22;8517;53.546;10.104;2023-01-28T15:11:19;6.40;99.90
11221;DHT22;8517;53.546;10.104;2023-01-28T15:13:49;6.40;99.90
11221;DHT22;8517;53.546;10.104;2023-01-28T15:16:19;6.40;99.90
11221;DHT22;8517;53.546;10.104;2023-01-28T15:18:47;6.40;99.90
11221;DHT22;8517;53.546;10.104;2023-01-28T15:21:20;6.40;99.90
11221;DHT22;8517;53.546;10.104;2023-01-28T15:23:49;6.30;99.90
11221;DHT22;8517;53.546;10.104;2023-01-28T15:26:20;6.40;99.90
11221;DHT22;8517;53.546;10.104;2023-01-28T15:28:49;6.30;99.90
11221;DHT22;8517;53.546;10.104;2023-01-28T15:31:20;6.40;99.90
11221;DHT22;8517;53.546;10.104;2023-01-28T15:33:56;6.30;99.90
11221;DHT22;8517;53.546;10.104;2023-01-28T15:36:25;6.30;99.90
11221;DHT22;8517;53.546;10.104;2023-01-28T15:38:52;6.20;99.90
11221;DHT22;8517;53.546;10.104;2023-01-28T15:41:21;6.20;99.90
11221;DHT22;8517;53.546;10.104;2023-01-28T15:43:49;6.20;99.90
11221;DHT22;8517;53.546;10.104;2023-01-28T15:46:18;6.20;99.90
11221;DHT22;8517;53.546;10.104;2023-01-28T15:48:54;6.20;99.90
11221;DHT22;8517;53.546;10.104;2023-01-28T15:51:25;6.20;99.90
11221;DHT22;8517;53.546;10.104;2023-01-28T15:53:56;6.20;99.90
11221;DHT22;8517;53.546;10.104;2023-01-28T15:56:25;6.10;99.90
11221;DHT22;8517;53.546;10.104;2023-01-28T15:58:53;6.10;99.90
11221;DHT22;8517;53.546;10.104;2023-01-28T16:01:21;6.10;99.90
11221;DHT22;8517;53.546;10.104;2023-01-28T16:04:00;6.00;99.90
11221;DHT22;8517;53.546;10.104;2023-01-28T16:06:33;5.90;99.90
11221;DHT22;8517;53.546;10.104;2023-01-28T16:09:03;5.80;99.90
11221;DHT22;8517;53.546;10.104;2023-01-28T16:11:33;5.80;99.90
11221;DHT22;8517;53.546;10.104;2023-01-28T16:14:02;5.80;99.90
11221;DHT22;8517;53.546;10.104;2023-01-28T16:16:31;5.80;99.90
11221;DHT22;8517;53.546;10.104;2023-01-28T16:19:00;5.80;99.90
11221;DHT22;8517;53.546;10.104;2023-01-28T16:21:32;5.70;99.90
11221;DHT22;8517;53.546;10.104;2023-01-28T16:24:04;5.80;99.90
11221;DHT22;8517;53.546;10.104;2023-01-28T16:26:34;5.70;99.90
11221;DHT22;8517;53.546;10.104;2023-01-28T16:29:12;5.70;99.90
11221;DHT22;8517;53.546;10.104;2023-01-28T16:31:41;5.70;99.90
11221;DHT22;8517;53.546;10.104;2023-01-28T16:34:09;5.70;99.90
11221;DHT22;8517;53.546;10.104;2023-01-28T16:36:38;5.70;99.90